North Stonington, Connecticut
Current Conditions -  °F | °C
As of 1:45 PM on Monday 26 Jan 2015 (Local Time) from KWST Reporting Station
Light Snow Light Snow  
Wind Chill: 14°   Ceiling: 2800
Heat Index: 25°   Visibility: 2mi
Dew Point: 19°   Wind: 12mph
Humidity: 78%   Direction: 30°NNE
Pressure: 29.95"   Gusts: 23mph
Location:  41.44°N, 71.88°W
Report Text: KWST 261845Z AUTO 03010G20KT 2SM -SN BKN028 OVC041 M04/M07 A2995 RMK AO2 SNB27 P0000 T10391072
Loading
Personal Weather Stations






























Interactive Weather Map New forecast layout! Learn more

10-Day Weather Forecast

Advertisements
Track Severe Weather on mobile